Terminal Aerodrome Forecast
Issued by NWS

Home | Current Version | Previous Version | Text Only | Print | Product List | Glossary On
Versions: 1 2 3 4 5 6 7 8 9 10 11 12
481
FTUS45 KABQ 131722
TAFTCC
TAF
KTCC 131722Z 1318/1418 22012G20KT P6SM FEW250
     FM131900 23020G28KT P6SM FEW250
     FM140100 24007KT P6SM FEW250=

USA.gov is the U.S. government's official web portal to all federal, state and local government web resources and services.